首页
METAR-TAF:

METAR-TAF

机场 :

Yellowstone Airport

West Yellowstone, 蒙大拿州, 美国

纬度: 44-39N, 经度: 111-06W, 海拔: 2031米

当前天气观测

该预报发布于37分钟前的22:05 UTC
风速5节,风向多变
温度 15°C
湿度 59%
气压 1019 hPa
能見度: 16.1公里
散云层高于3600英尺
多云层高于4800英尺
阴天层高于5500英尺

METAR: KWYS 262205Z AUTO VRB05KT 10SM SCT036 BKN048 OVC055 15/07 A3009 RMK AO2

时间: 16:42 (22:42 UTC)

预报

该预报发布于4小时和58分钟前的17:44 UTC
预报有效从26日的 18点(UTC)到 27日的 18点(UTC)
风速5节,风向多变
能見度: 10公里
多云层高于4500英尺
从 27日的 0300点(UTC)
风速6节,风向多变
能見度: 10公里
散云层高于3500英尺
多云层高于8000英尺
几率 30%
从 27日的 05点(UTC)到 27日的 09点(UTC)
能見度: 9.7公里
多云层高于3000英尺
小阵雨
从 27日的 1600点(UTC)
风速2节,风向多变
能見度: 10公里
散云层高于4500英尺
几率 30%
从 27日的 16点(UTC)到 27日的 18点(UTC)
能見度: 9.7公里
多云层高于3000英尺
小阵雨

TAF: KWYS 261744Z 2618/2718 VRB05KT P6SM BKN045 FM270300 VRB06KT P6SM SCT035 BKN080 PROB30 2705/2709 6SM -SHRA BKN030 FM271600 VRB02KT P6SM SCT045 PROB30 2716/2718 6SM -SHRA BKN030

超过4000个机场的气象观测和天气预报(METAR&TAF报告)。

可查询的气象台以黄色和红色小点在地图上表示。

将鼠标移到小点上方,可查看气象台名称。

然后点击查看天气观测和预报。

如需切换地图:点击带黑十字的绿色按钮放大地图;点击带横线的绿色按钮缩小地图;或者点击绿色箭头查看邻近地区的地图。


METAR-TAF: